sensor_id;sensor_type;location;lat;lon;timestamp;pressure;altitude;pressure_sealevel;temperature;humidity
63556;BME280;49700;48.072;7.800;2023-03-23T00:02:28;98946.47;;;13.65;61.08
63556;BME280;49700;48.072;7.800;2023-03-23T00:04:54;98945.91;;;13.62;61.24
63556;BME280;49700;48.072;7.800;2023-03-23T00:07:21;98942.28;;;13.63;60.94
63556;BME280;49700;48.072;7.800;2023-03-23T00:09:52;98940.94;;;13.68;60.94
63556;BME280;49700;48.072;7.800;2023-03-23T00:12:23;98938.72;;;13.73;60.74
63556;BME280;49700;48.072;7.800;2023-03-23T00:15:03;98938.31;;;13.78;60.70
63556;BME280;49700;48.072;7.800;2023-03-23T00:17:30;98943.34;;;13.81;60.56
63556;BME280;49700;48.072;7.800;2023-03-23T00:19:58;98935.16;;;13.84;60.36
63556;BME280;49700;48.072;7.800;2023-03-23T00:22:27;98935.53;;;13.80;60.30
63556;BME280;49700;48.072;7.800;2023-03-23T00:24:52;98927.22;;;13.75;60.23
63556;BME280;49700;48.072;7.800;2023-03-23T00:27:19;98919.81;;;13.68;60.31
63556;BME280;49700;48.072;7.800;2023-03-23T00:29:47;98922.88;;;13.64;60.52
63556;BME280;49700;48.072;7.800;2023-03-23T00:32:13;98922.16;;;13.62;60.65
63556;BME280;49700;48.072;7.800;2023-03-23T00:34:40;98928.28;;;13.62;60.74
63556;BME280;49700;48.072;7.800;2023-03-23T00:37:07;98923.56;;;13.66;60.78
63556;BME280;49700;48.072;7.800;2023-03-23T00:39:32;98913.69;;;13.68;60.76
63556;BME280;49700;48.072;7.800;2023-03-23T00:41:58;98916.22;;;13.69;60.85
63556;BME280;49700;48.072;7.800;2023-03-23T00:44:29;98911.06;;;13.68;60.99
63556;BME280;49700;48.072;7.800;2023-03-23T00:46:56;98919.13;;;13.66;61.09
63556;BME280;49700;48.072;7.800;2023-03-23T00:49:23;98916.63;;;13.65;61.11
63556;BME280;49700;48.072;7.800;2023-03-23T00:51:53;98920.09;;;13.65;61.36
63556;BME280;49700;48.072;7.800;2023-03-23T00:54:20;98917.31;;;13.67;61.25
63556;BME280;49700;48.072;7.800;2023-03-23T00:56:48;98906.50;;;13.70;61.40
63556;BME280;49700;48.072;7.800;2023-03-23T00:59:14;98904.81;;;13.69;61.66
63556;BME280;49700;48.072;7.800;2023-03-23T01:01:39;98897.88;;;13.68;61.76
63556;BME280;49700;48.072;7.800;2023-03-23T01:04:05;98898.69;;;13.68;61.75
63556;BME280;49700;48.072;7.800;2023-03-23T01:06:35;98904.13;;;13.67;61.90
63556;BME280;49700;48.072;7.800;2023-03-23T01:09:05;98906.78;;;13.67;61.98
63556;BME280;49700;48.072;7.800;2023-03-23T01:11:31;98905.78;;;13.68;62.19
63556;BME280;49700;48.072;7.800;2023-03-23T01:13:57;98901.50;;;13.67;62.31
63556;BME280;49700;48.072;7.800;2023-03-23T01:16:23;98882.44;;;13.63;62.70
63556;BME280;49700;48.072;7.800;2023-03-23T01:18:48;98878.41;;;13.59;63.01
63556;BME280;49700;48.072;7.800;2023-03-23T01:21:17;98875.91;;;13.58;63.26
63556;BME280;49700;48.072;7.800;2023-03-23T01:23:43;98882.16;;;13.57;63.64
63556;BME280;49700;48.072;7.800;2023-03-23T01:26:10;98871.59;;;13.57;63.89
63556;BME280;49700;48.072;7.800;2023-03-23T01:28:40;98875.06;;;13.57;64.15
63556;BME280;49700;48.072;7.800;2023-03-23T01:31:08;98866.31;;;13.57;64.36
63556;BME280;49700;48.072;7.800;2023-03-23T01:33:35;98866.16;;;13.58;64.34
63556;BME280;49700;48.072;7.800;2023-03-23T01:36:13;98869.38;;;13.62;64.56
63556;BME280;49700;48.072;7.800;2023-03-23T01:38:40;98862.31;;;13.62;64.56
63556;BME280;49700;48.072;7.800;2023-03-23T01:41:06;98851.47;;;13.65;64.50
63556;BME280;49700;48.072;7.800;2023-03-23T01:43:32;98845.91;;;13.68;64.28
63556;BME280;49700;48.072;7.800;2023-03-23T01:45:57;98848.88;;;13.75;63.99
63556;BME280;49700;48.072;7.800;2023-03-23T01:48:26;98843.75;;;13.83;63.51
63556;BME280;49700;48.072;7.800;2023-03-23T01:50:57;98849.28;;;13.90;63.15
63556;BME280;49700;48.072;7.800;2023-03-23T01:53:28;98847.78;;;13.97;62.78
63556;BME280;49700;48.072;7.800;2023-03-23T01:55:56;98832.78;;;14.07;62.00
63556;BME280;49700;48.072;7.800;2023-03-23T01:58:25;98834.44;;;14.18;60.64
63556;BME280;49700;48.072;7.800;2023-03-23T02:00:56;98835.81;;;14.32;60.11
63556;BME280;49700;48.072;7.800;2023-03-23T02:07:12;98841.66;;;14.35;60.05
63556;BME280;49700;48.072;7.800;2023-03-23T02:09:39;98834.41;;;14.28;60.40
63556;BME280;49700;48.072;7.800;2023-03-23T02:12:05;98828.31;;;14.17;60.89
63556;BME280;49700;48.072;7.800;2023-03-23T02:14:32;98812.31;;;14.09;61.32
63556;BME280;49700;48.072;7.800;2023-03-23T02:17:24;98801.50;;;14.03;61.61
63556;BME280;49700;48.072;7.800;2023-03-23T02:20:11;98804.69;;;13.97;61.91
63556;BME280;49700;48.072;7.800;2023-03-23T02:22:51;98818.19;;;13.93;61.94
63556;BME280;49700;48.072;7.800;2023-03-23T02:25:33;98809.28;;;13.94;62.09
63556;BME280;49700;48.072;7.800;2023-03-23T02:28:09;98799.41;;;13.97;61.93
63556;BME280;49700;48.072;7.800;2023-03-23T02:38:55;98779.09;;;14.26;59.73
63556;BME280;49700;48.072;7.800;2023-03-23T02:41:27;98769.06;;;14.39;58.33
63556;BME280;49700;48.072;7.800;2023-03-23T02:43:55;98769.19;;;14.57;57.16
63556;BME280;49700;48.072;7.800;2023-03-23T02:46:21;98767.88;;;14.71;56.51
63556;BME280;49700;48.072;7.800;2023-03-23T02:48:48;98774.66;;;14.83;55.42
63556;BME280;49700;48.072;7.800;2023-03-23T02:51:18;98782.28;;;14.96;54.48
63556;BME280;49700;48.072;7.800;2023-03-23T02:53:47;98781.94;;;15.09;53.73
63556;BME280;49700;48.072;7.800;2023-03-23T02:56:16;98787.88;;;15.21;52.70
63556;BME280;49700;48.072;7.800;2023-03-23T02:58:42;98786.84;;;15.32;52.35
63556;BME280;49700;48.072;7.800;2023-03-23T03:04:01;98786.84;;;15.49;51.18
63556;BME280;49700;48.072;7.800;2023-03-23T03:09:21;98786.78;;;15.69;49.96
63556;BME280;49700;48.072;7.800;2023-03-23T03:11:55;98772.94;;;15.75;49.48
63556;BME280;49700;48.072;7.800;2023-03-23T03:14:28;98763.25;;;15.84;49.22
63556;BME280;49700;48.072;7.800;2023-03-23T03:17:04;98758.00;;;15.92;48.92
63556;BME280;49700;48.072;7.800;2023-03-23T03:19:35;98758.53;;;15.96;48.79
63556;BME280;49700;48.072;7.800;2023-03-23T03:22:04;98758.38;;;15.97;48.64
63556;BME280;49700;48.072;7.800;2023-03-23T03:24:38;98753.91;;;15.98;48.16
63556;BME280;49700;48.072;7.800;2023-03-23T03:27:10;98746.66;;;16.00;47.91
63556;BME280;49700;48.072;7.800;2023-03-23T03:29:45;98750.50;;;16.05;47.66
63556;BME280;49700;48.072;7.800;2023-03-23T03:32:17;98748.38;;;16.09;46.92
63556;BME280;49700;48.072;7.800;2023-03-23T03:34:44;98744.28;;;16.14;46.86
63556;BME280;49700;48.072;7.800;2023-03-23T03:37:10;98745.78;;;16.17;46.69
63556;BME280;49700;48.072;7.800;2023-03-23T03:39:38;98734.22;;;16.18;46.48
63556;BME280;49700;48.072;7.800;2023-03-23T03:42:04;98726.78;;;16.22;46.31
63556;BME280;49700;48.072;7.800;2023-03-23T03:44:31;98733.28;;;16.27;45.71
63556;BME280;49700;48.072;7.800;2023-03-23T03:46:56;98746.75;;;16.34;45.63
63556;BME280;49700;48.072;7.800;2023-03-23T03:49:22;98744.31;;;16.41;45.47
63556;BME280;49700;48.072;7.800;2023-03-23T03:51:48;98744.00;;;16.44;45.18
63556;BME280;49700;48.072;7.800;2023-03-23T03:54:21;98740.19;;;16.46;44.96
63556;BME280;49700;48.072;7.800;2023-03-23T03:56:46;98743.53;;;16.48;44.99
63556;BME280;49700;48.072;7.800;2023-03-23T03:59:35;98747.81;;;16.49;44.87
63556;BME280;49700;48.072;7.800;2023-03-23T04:02:22;98744.22;;;16.50;44.67
63556;BME280;49700;48.072;7.800;2023-03-23T04:04:49;98745.53;;;16.54;44.47
63556;BME280;49700;48.072;7.800;2023-03-23T04:07:17;98754.84;;;16.58;44.29
63556;BME280;49700;48.072;7.800;2023-03-23T04:09:43;98764.31;;;16.61;44.04
63556;BME280;49700;48.072;7.800;2023-03-23T04:12:13;98763.19;;;16.64;44.18
63556;BME280;49700;48.072;7.800;2023-03-23T04:14:58;98764.69;;;16.66;43.93
63556;BME280;49700;48.072;7.800;2023-03-23T04:17:31;98761.03;;;16.67;43.90
63556;BME280;49700;48.072;7.800;2023-03-23T04:19:57;98748.47;;;16.69;43.81
63556;BME280;49700;48.072;7.800;2023-03-23T04:22:24;98744.81;;;16.70;43.71
63556;BME280;49700;48.072;7.800;2023-03-23T04:24:56;98744.50;;;16.73;43.67
63556;BME280;49700;48.072;7.800;2023-03-23T04:27:25;98752.00;;;16.78;43.30
63556;BME280;49700;48.072;7.800;2023-03-23T04:29:50;98753.34;;;16.82;43.36
63556;BME280;49700;48.072;7.800;2023-03-23T04:32:31;98764.31;;;16.87;43.09
63556;BME280;49700;48.072;7.800;2023-03-23T04:34:57;98771.94;;;16.90;43.08
63556;BME280;49700;48.072;7.800;2023-03-23T04:37:28;98765.50;;;16.93;43.02
63556;BME280;49700;48.072;7.800;2023-03-23T04:39:59;98767.19;;;16.94;43.11
63556;BME280;49700;48.072;7.800;2023-03-23T04:42:28;98769.81;;;16.94;43.08
63556;BME280;49700;48.072;7.800;2023-03-23T04:45:16;98777.94;;;16.92;43.21
63556;BME280;49700;48.072;7.800;2023-03-23T04:47:51;98787.56;;;16.93;43.07
63556;BME280;49700;48.072;7.800;2023-03-23T04:50:28;98782.09;;;16.95;42.97
63556;BME280;49700;48.072;7.800;2023-03-23T04:53:04;98783.09;;;16.94;43.12
63556;BME280;49700;48.072;7.800;2023-03-23T04:55:32;98790.88;;;16.95;43.09
63556;BME280;49700;48.072;7.800;2023-03-23T04:58:05;98788.91;;;16.97;42.93
63556;BME280;49700;48.072;7.800;2023-03-23T05:00:39;98794.88;;;16.99;42.84
63556;BME280;49700;48.072;7.800;2023-03-23T05:03:06;98792.91;;;17.01;42.82
63556;BME280;49700;48.072;7.800;2023-03-23T05:05:33;98798.88;;;17.03;42.66
63556;BME280;49700;48.072;7.800;2023-03-23T05:08:04;98793.41;;;17.05;42.58
63556;BME280;49700;48.072;7.800;2023-03-23T05:10:33;98796.91;;;17.06;42.69
63556;BME280;49700;48.072;7.800;2023-03-23T05:13:05;98792.59;;;17.05;42.91
63556;BME280;49700;48.072;7.800;2023-03-23T05:15:30;98788.25;;;17.03;42.82
63556;BME280;49700;48.072;7.800;2023-03-23T05:17:57;98782.31;;;17.01;42.98
63556;BME280;49700;48.072;7.800;2023-03-23T05:20:23;98783.28;;;17.00;43.07
63556;BME280;49700;48.072;7.800;2023-03-23T05:22:53;98786.09;;;16.99;42.98
63556;BME280;49700;48.072;7.800;2023-03-23T05:25:24;98789.72;;;16.98;43.02
63556;BME280;49700;48.072;7.800;2023-03-23T05:27:57;98793.19;;;16.98;43.18
63556;BME280;49700;48.072;7.800;2023-03-23T05:30:44;98796.84;;;16.97;43.27
63556;BME280;49700;48.072;7.800;2023-03-23T05:33:11;98802.03;;;16.99;43.25
63556;BME280;49700;48.072;7.800;2023-03-23T05:36:10;98809.31;;;16.97;43.37
63556;BME280;49700;48.072;7.800;2023-03-23T05:38:58;98817.41;;;16.95;43.44
63556;BME280;49700;48.072;7.800;2023-03-23T05:41:26;98807.66;;;16.96;43.63
63556;BME280;49700;48.072;7.800;2023-03-23T05:43:51;98810.28;;;16.96;43.67
63556;BME280;49700;48.072;7.800;2023-03-23T05:46:29;98813.09;;;16.94;43.56
63556;BME280;49700;48.072;7.800;2023-03-23T05:48:58;98813.09;;;16.94;43.60
63556;BME280;49700;48.072;7.800;2023-03-23T05:51:31;98822.19;;;16.92;43.80
63556;BME280;49700;48.072;7.800;2023-03-23T05:53:56;98825.34;;;16.95;43.65
63556;BME280;49700;48.072;7.800;2023-03-23T05:56:22;98838.63;;;16.95;43.92
63556;BME280;49700;48.072;7.800;2023-03-23T05:59:23;98850.38;;;16.93;44.06
63556;BME280;49700;48.072;7.800;2023-03-23T06:01:52;98842.41;;;16.93;44.15
63556;BME280;49700;48.072;7.800;2023-03-23T06:04:20;98856.81;;;16.90;44.38
63556;BME280;49700;48.072;7.800;2023-03-23T06:07:01;98856.50;;;16.85;44.57
63556;BME280;49700;48.072;7.800;2023-03-23T06:09:27;98865.59;;;16.83;44.69
63556;BME280;49700;48.072;7.800;2023-03-23T06:12:13;98869.38;;;16.80;45.09
63556;BME280;49700;48.072;7.800;2023-03-23T06:14:48;98871.63;;;16.75;45.18
63556;BME280;49700;48.072;7.800;2023-03-23T06:17:17;98864.00;;;16.72;45.36
63556;BME280;49700;48.072;7.800;2023-03-23T06:19:43;98873.09;;;16.69;45.53
63556;BME280;49700;48.072;7.800;2023-03-23T06:22:14;98871.56;;;16.67;45.63
63556;BME280;49700;48.072;7.800;2023-03-23T06:24:42;98874.53;;;16.64;45.74
63556;BME280;49700;48.072;7.800;2023-03-23T06:27:09;98873.84;;;16.62;45.87
63556;BME280;49700;48.072;7.800;2023-03-23T06:29:37;98875.81;;;16.59;45.92
63556;BME280;49700;48.072;7.800;2023-03-23T06:32:04;98869.00;;;16.57;45.96
63556;BME280;49700;48.072;7.800;2023-03-23T06:34:31;98864.84;;;16.54;46.05
63556;BME280;49700;48.072;7.800;2023-03-23T06:37:17;98860.84;;;16.50;46.17
63556;BME280;49700;48.072;7.800;2023-03-23T06:39:50;98854.69;;;16.50;46.22
63556;BME280;49700;48.072;7.800;2023-03-23T06:42:22;98861.81;;;16.49;46.23
63556;BME280;49700;48.072;7.800;2023-03-23T06:44:58;98855.84;;;16.47;46.40
63556;BME280;49700;48.072;7.800;2023-03-23T06:47:26;98858.66;;;16.46;46.37
63556;BME280;49700;48.072;7.800;2023-03-23T06:49:52;98872.91;;;16.45;46.46
63556;BME280;49700;48.072;7.800;2023-03-23T06:52:24;98878.19;;;16.45;46.53
63556;BME280;49700;48.072;7.800;2023-03-23T06:54:50;98877.34;;;16.44;46.67
63556;BME280;49700;48.072;7.800;2023-03-23T06:57:18;98891.91;;;16.40;46.58
63556;BME280;49700;48.072;7.800;2023-03-23T06:59:45;98903.50;;;16.39;46.72
63556;BME280;49700;48.072;7.800;2023-03-23T07:02:12;98907.28;;;16.36;46.97
63556;BME280;49700;48.072;7.800;2023-03-23T07:04:40;98914.56;;;16.34;46.87
63556;BME280;49700;48.072;7.800;2023-03-23T07:07:10;98920.81;;;16.33;47.17
63556;BME280;49700;48.072;7.800;2023-03-23T07:09:47;98920.00;;;16.33;47.24
63556;BME280;49700;48.072;7.800;2023-03-23T07:12:15;98919.31;;;16.31;47.12
63556;BME280;49700;48.072;7.800;2023-03-23T07:14:45;98916.50;;;16.32;46.96
63556;BME280;49700;48.072;7.800;2023-03-23T07:17:11;98913.56;;;16.35;47.03
63556;BME280;49700;48.072;7.800;2023-03-23T07:19:41;98917.88;;;16.36;46.90
63556;BME280;49700;48.072;7.800;2023-03-23T07:22:10;98916.75;;;16.39;47.13
63556;BME280;49700;48.072;7.800;2023-03-23T07:24:36;98927.88;;;16.43;47.70
63556;BME280;49700;48.072;7.800;2023-03-23T07:27:22;98935.00;;;16.42;48.32
63556;BME280;49700;48.072;7.800;2023-03-23T07:29:51;98938.09;;;16.37;48.92
63556;BME280;49700;48.072;7.800;2023-03-23T07:32:21;98943.00;;;16.32;49.67
63556;BME280;49700;48.072;7.800;2023-03-23T07:34:47;98944.44;;;16.27;50.09
63556;BME280;49700;48.072;7.800;2023-03-23T07:37:21;98946.56;;;16.23;50.39
63556;BME280;49700;48.072;7.800;2023-03-23T07:39:48;98945.38;;;16.18;50.55
63556;BME280;49700;48.072;7.800;2023-03-23T07:42:14;98949.16;;;16.15;50.71
63556;BME280;49700;48.072;7.800;2023-03-23T07:44:46;98945.28;;;16.09;50.94
63556;BME280;49700;48.072;7.800;2023-03-23T07:47:12;98942.75;;;16.08;51.08
63556;BME280;49700;48.072;7.800;2023-03-23T07:49:38;98956.31;;;16.05;51.29
63556;BME280;49700;48.072;7.800;2023-03-23T07:52:14;98953.97;;;16.02;51.60
63556;BME280;49700;48.072;7.800;2023-03-23T07:54:39;98957.56;;;16.01;51.78
63556;BME280;49700;48.072;7.800;2023-03-23T07:57:20;98965.69;;;15.99;51.89
63556;BME280;49700;48.072;7.800;2023-03-23T07:59:50;98962.34;;;15.97;52.25
63556;BME280;49700;48.072;7.800;2023-03-23T08:02:16;98964.47;;;15.93;52.68
63556;BME280;49700;48.072;7.800;2023-03-23T08:05:00;98966.56;;;15.90;52.86
63556;BME280;49700;48.072;7.800;2023-03-23T08:07:53;98976.47;;;15.88;53.31
63556;BME280;49700;48.072;7.800;2023-03-23T08:10:40;98980.38;;;15.84;53.57
63556;BME280;49700;48.072;7.800;2023-03-23T08:13:17;98977.88;;;15.82;53.97
63556;BME280;49700;48.072;7.800;2023-03-23T08:16:02;98978.16;;;15.79;54.59
63556;BME280;49700;48.072;7.800;2023-03-23T08:18:47;98986.28;;;15.78;54.91
63556;BME280;49700;48.072;7.800;2023-03-23T08:21:24;98978.34;;;15.78;55.07
63556;BME280;49700;48.072;7.800;2023-03-23T08:24:17;98973.03;;;15.78;55.24
63556;BME280;49700;48.072;7.800;2023-03-23T08:27:04;98986.28;;;15.78;55.59
63556;BME280;49700;48.072;7.800;2023-03-23T08:29:47;98993.41;;;15.77;55.71
63556;BME280;49700;48.072;7.800;2023-03-23T08:32:36;98987.94;;;15.79;55.87
63556;BME280;49700;48.072;7.800;2023-03-23T08:35:22;98980.00;;;15.79;56.12
63556;BME280;49700;48.072;7.800;2023-03-23T08:37:54;98985.97;;;15.81;56.34
63556;BME280;49700;48.072;7.800;2023-03-23T08:40:38;98995.19;;;15.77;56.37
63556;BME280;49700;48.072;7.800;2023-03-23T08:43:28;99003.28;;;15.75;56.41
63556;BME280;49700;48.072;7.800;2023-03-23T08:46:16;98998.28;;;15.72;56.82
63556;BME280;49700;48.072;7.800;2023-03-23T08:49:12;99006.53;;;15.69;56.84
63556;BME280;49700;48.072;7.800;2023-03-23T08:51:56;99007.47;;;15.68;56.93
63556;BME280;49700;48.072;7.800;2023-03-23T08:54:45;99010.84;;;15.70;56.70
63556;BME280;49700;48.072;7.800;2023-03-23T08:57:31;99013.47;;;15.70;56.87
63556;BME280;49700;48.072;7.800;2023-03-23T09:00:26;99014.00;;;15.74;56.95
63556;BME280;49700;48.072;7.800;2023-03-23T09:03:05;99010.25;;;15.76;57.00
63556;BME280;49700;48.072;7.800;2023-03-23T09:05:41;99018.06;;;15.78;57.27
63556;BME280;49700;48.072;7.800;2023-03-23T09:08:22;99015.53;;;15.76;57.42
63556;BME280;49700;48.072;7.800;2023-03-23T09:10:47;99018.75;;;15.80;57.36
63556;BME280;49700;48.072;7.800;2023-03-23T09:13:14;99011.47;;;15.82;57.48
63556;BME280;49700;48.072;7.800;2023-03-23T09:15:40;99013.16;;;15.83;57.33
63556;BME280;49700;48.072;7.800;2023-03-23T09:18:06;99013.16;;;15.83;57.22
63556;BME280;49700;48.072;7.800;2023-03-23T09:20:31;99011.19;;;15.85;57.25
63556;BME280;49700;48.072;7.800;2023-03-23T09:22:57;99011.56;;;15.90;57.15
63556;BME280;49700;48.072;7.800;2023-03-23T09:25:25;99004.19;;;15.93;57.06
63556;BME280;49700;48.072;7.800;2023-03-23T09:27:54;99001.09;;;15.98;56.90
63556;BME280;49700;48.072;7.800;2023-03-23T09:30:22;99000.34;;;16.06;56.69
63556;BME280;49700;48.072;7.800;2023-03-23T09:32:49;98995.97;;;16.14;56.37
63556;BME280;49700;48.072;7.800;2023-03-23T09:35:15;98990.78;;;16.23;56.15
63556;BME280;49700;48.072;7.800;2023-03-23T09:37:43;98998.81;;;16.31;55.71
63556;BME280;49700;48.072;7.800;2023-03-23T09:40:19;98993.44;;;16.41;55.73
63556;BME280;49700;48.072;7.800;2023-03-23T09:43:06;98993.41;;;16.50;55.66
63556;BME280;49700;48.072;7.800;2023-03-23T09:46:05;99001.44;;;16.58;55.57
63556;BME280;49700;48.072;7.800;2023-03-23T09:48:58;99007.78;;;16.66;55.39
63556;BME280;49700;48.072;7.800;2023-03-23T09:51:29;99006.34;;;16.71;54.55
63556;BME280;49700;48.072;7.800;2023-03-23T09:54:05;99006.63;;;16.78;53.97
63556;BME280;49700;48.072;7.800;2023-03-23T09:56:35;99006.00;;;16.84;53.07
63556;BME280;49700;48.072;7.800;2023-03-23T09:59:08;99004.72;;;16.88;52.68
63556;BME280;49700;48.072;7.800;2023-03-23T10:01:39;98996.28;;;16.93;52.45
63556;BME280;49700;48.072;7.800;2023-03-23T10:04:28;98997.81;;;16.95;51.83
63556;BME280;49700;48.072;7.800;2023-03-23T10:07:05;99000.13;;;16.98;51.65
63556;BME280;49700;48.072;7.800;2023-03-23T10:09:31;99005.31;;;17.00;51.28
63556;BME280;49700;48.072;7.800;2023-03-23T10:12:07;99012.13;;;17.02;50.92
63556;BME280;49700;48.072;7.800;2023-03-23T10:20:21;98993.16;;;17.15;49.37
63556;BME280;49700;48.072;7.800;2023-03-23T10:22:58;99005.34;;;17.26;49.06
63556;BME280;49700;48.072;7.800;2023-03-23T10:25:34;98997.28;;;17.36;48.42
63556;BME280;49700;48.072;7.800;2023-03-23T10:28:20;99003.31;;;17.46;48.59
63556;BME280;49700;48.072;7.800;2023-03-23T10:30:55;98998.88;;;17.55;47.61
63556;BME280;49700;48.072;7.800;2023-03-23T10:33:38;99004.22;;;17.63;47.31
63556;BME280;49700;48.072;7.800;2023-03-23T10:36:28;98998.00;;;17.72;47.15
63556;BME280;49700;48.072;7.800;2023-03-23T10:39:02;98993.88;;;17.78;46.31
63556;BME280;49700;48.072;7.800;2023-03-23T10:41:29;98988.78;;;17.84;46.44
63556;BME280;49700;48.072;7.800;2023-03-23T10:43:55;98984.81;;;17.88;46.29
63556;BME280;49700;48.072;7.800;2023-03-23T10:46:37;98989.50;;;17.95;45.98
63556;BME280;49700;48.072;7.800;2023-03-23T10:49:09;98984.53;;;18.00;45.88
63556;BME280;49700;48.072;7.800;2023-03-23T10:51:43;98991.84;;;18.06;45.71
63556;BME280;49700;48.072;7.800;2023-03-23T10:54:10;98994.03;;;18.10;45.34
63556;BME280;49700;48.072;7.800;2023-03-23T10:56:39;98993.56;;;18.15;45.10
63556;BME280;49700;48.072;7.800;2023-03-23T10:59:34;98998.06;;;18.23;45.21
63556;BME280;49700;48.072;7.800;2023-03-23T11:02:02;98994.22;;;18.25;45.12
63556;BME280;49700;48.072;7.800;2023-03-23T11:04:29;98993.06;;;18.28;44.86
63556;BME280;49700;48.072;7.800;2023-03-23T11:07:00;98996.09;;;18.33;44.90
63556;BME280;49700;48.072;7.800;2023-03-23T11:09:35;98999.78;;;18.40;44.99
63556;BME280;49700;48.072;7.800;2023-03-23T11:12:01;98994.94;;;18.44;44.50
63556;BME280;49700;48.072;7.800;2023-03-23T11:14:30;98994.63;;;18.47;44.73
63556;BME280;49700;48.072;7.800;2023-03-23T11:16:57;98994.97;;;18.52;44.71
63556;BME280;49700;48.072;7.800;2023-03-23T11:19:31;98984.66;;;18.57;44.70
63556;BME280;49700;48.072;7.800;2023-03-23T11:24:34;98989.66;;;18.68;44.57
63556;BME280;49700;48.072;7.800;2023-03-23T11:27:00;98990.53;;;18.69;44.16
63556;BME280;49700;48.072;7.800;2023-03-23T11:29:29;98991.34;;;18.69;44.12
63556;BME280;49700;48.072;7.800;2023-03-23T11:34:32;98993.22;;;18.85;43.91
63556;BME280;49700;48.072;7.800;2023-03-23T11:37:08;98980.75;;;18.94;43.83
63556;BME280;49700;48.072;7.800;2023-03-23T11:39:47;98977.91;;;19.04;43.61
63556;BME280;49700;48.072;7.800;2023-03-23T11:44:54;98976.41;;;19.17;43.17
63556;BME280;49700;48.072;7.800;2023-03-23T11:47:39;98974.06;;;19.22;43.09
63556;BME280;49700;48.072;7.800;2023-03-23T11:50:18;98977.56;;;19.31;43.16
63556;BME280;49700;48.072;7.800;2023-03-23T11:53:10;98977.34;;;19.41;42.75
63556;BME280;49700;48.072;7.800;2023-03-23T11:58:16;98976.69;;;19.47;42.68
63556;BME280;49700;48.072;7.800;2023-03-23T12:01:20;98974.69;;;19.49;42.41
63556;BME280;49700;48.072;7.800;2023-03-23T12:09:30;98971.53;;;19.45;41.29
63556;BME280;49700;48.072;7.800;2023-03-23T12:12:03;98966.38;;;19.44;41.35
63556;BME280;49700;48.072;7.800;2023-03-23T12:14:46;98954.06;;;19.43;41.28
63556;BME280;49700;48.072;7.800;2023-03-23T12:20:25;98949.91;;;19.40;40.94
63556;BME280;49700;48.072;7.800;2023-03-23T12:23:15;98942.91;;;19.39;41.43
63556;BME280;49700;48.072;7.800;2023-03-23T12:26:19;98940.25;;;19.39;41.01
63556;BME280;49700;48.072;7.800;2023-03-23T12:28:56;98949.75;;;19.42;41.21
63556;BME280;49700;48.072;7.800;2023-03-23T12:34:52;98943.06;;;19.46;41.00
63556;BME280;49700;48.072;7.800;2023-03-23T12:48:44;98942.06;;;19.47;40.60
63556;BME280;49700;48.072;7.800;2023-03-23T12:53:59;98938.41;;;19.48;40.51
63556;BME280;49700;48.072;7.800;2023-03-23T12:56:35;98937.72;;;19.46;40.56
63556;BME280;49700;48.072;7.800;2023-03-23T13:01:38;98939.56;;;19.45;40.58
63556;BME280;49700;48.072;7.800;2023-03-23T13:04:13;98934.25;;;19.45;40.82
63556;BME280;49700;48.072;7.800;2023-03-23T13:06:42;98931.72;;;19.44;40.86
63556;BME280;49700;48.072;7.800;2023-03-23T13:09:26;98931.91;;;19.42;40.91
63556;BME280;49700;48.072;7.800;2023-03-23T13:11:55;98931.44;;;19.39;41.03
63556;BME280;49700;48.072;7.800;2023-03-23T13:22:43;98929.28;;;19.34;41.51
63556;BME280;49700;48.072;7.800;2023-03-23T13:25:17;98923.13;;;19.34;41.66
63556;BME280;49700;48.072;7.800;2023-03-23T13:27:44;98929.63;;;19.31;41.55
63556;BME280;49700;48.072;7.800;2023-03-23T13:30:21;98930.44;;;19.32;41.35
63556;BME280;49700;48.072;7.800;2023-03-23T13:32:48;98930.13;;;19.27;41.49
63556;BME280;49700;48.072;7.800;2023-03-23T13:35:17;98928.28;;;19.27;41.34
63556;BME280;49700;48.072;7.800;2023-03-23T13:37:48;98924.13;;;19.24;41.55
63556;BME280;49700;48.072;7.800;2023-03-23T13:40:23;98923.66;;;19.21;41.19
63556;BME280;49700;48.072;7.800;2023-03-23T13:42:55;98926.66;;;19.18;41.23
63556;BME280;49700;48.072;7.800;2023-03-23T13:48:18;98898.03;;;19.12;40.72
63556;BME280;49700;48.072;7.800;2023-03-23T13:50:51;98906.22;;;19.10;40.76
63556;BME280;49700;48.072;7.800;2023-03-23T13:53:28;98910.84;;;19.08;40.44
63556;BME280;49700;48.072;7.800;2023-03-23T13:56:37;98909.22;;;19.07;40.65
63556;BME280;49700;48.072;7.800;2023-03-23T13:59:12;98899.38;;;19.08;40.74
63556;BME280;49700;48.072;7.800;2023-03-23T14:01:39;98902.19;;;19.06;40.72
63556;BME280;49700;48.072;7.800;2023-03-23T14:04:10;98895.06;;;19.07;40.57
63556;BME280;49700;48.072;7.800;2023-03-23T14:06:40;98902.88;;;19.08;40.93
63556;BME280;49700;48.072;7.800;2023-03-23T14:09:23;98893.25;;;19.07;41.05
63556;BME280;49700;48.072;7.800;2023-03-23T14:12:00;98894.56;;;19.03;41.18
63556;BME280;49700;48.072;7.800;2023-03-23T14:14:38;98893.94;;;19.01;41.09
63556;BME280;49700;48.072;7.800;2023-03-23T14:17:15;98896.59;;;19.01;41.33
63556;BME280;49700;48.072;7.800;2023-03-23T14:19:46;98894.75;;;19.01;40.96
63556;BME280;49700;48.072;7.800;2023-03-23T14:22:46;98892.59;;;18.97;41.05
63556;BME280;49700;48.072;7.800;2023-03-23T14:25:16;98895.41;;;18.95;40.90
63556;BME280;49700;48.072;7.800;2023-03-23T14:27:42;98888.59;;;18.93;41.11
63556;BME280;49700;48.072;7.800;2023-03-23T14:30:13;98881.63;;;18.92;40.93
63556;BME280;49700;48.072;7.800;2023-03-23T14:32:39;98869.31;;;18.91;40.80
63556;BME280;49700;48.072;7.800;2023-03-23T14:35:27;98874.97;;;18.88;40.51
63556;BME280;49700;48.072;7.800;2023-03-23T14:37:54;98867.81;;;18.88;40.57
63556;BME280;49700;48.072;7.800;2023-03-23T14:40:21;98873.31;;;18.87;40.76
63556;BME280;49700;48.072;7.800;2023-03-23T14:42:46;98867.97;;;18.87;40.47
63556;BME280;49700;48.072;7.800;2023-03-23T14:45:16;98871.66;;;18.86;40.70